sensor_id;sensor_type;location;lat;lon;timestamp;pressure;altitude;pressure_sealevel;temperature;humidity
11190;BME280;5651;50.926;4.718;2022-09-23T00:00:36;101651.44;;;9.27;74.21
11190;BME280;5651;50.926;4.718;2022-09-23T00:03:02;101654.88;;;9.23;73.05
11190;BME280;5651;50.926;4.718;2022-09-23T00:05:29;101653.06;;;9.18;73.33
11190;BME280;5651;50.926;4.718;2022-09-23T00:07:56;101648.69;;;9.14;73.16
11190;BME280;5651;50.926;4.718;2022-09-23T00:10:24;101653.81;;;9.11;72.05
11190;BME280;5651;50.926;4.718;2022-09-23T00:12:50;101646.84;;;9.06;72.78
11190;BME280;5651;50.926;4.718;2022-09-23T00:15:16;101644.19;;;9.02;71.26
11190;BME280;5651;50.926;4.718;2022-09-23T00:17:42;101637.22;;;9.01;71.75
11190;BME280;5651;50.926;4.718;2022-09-23T00:20:08;101645.00;;;8.98;72.73
11190;BME280;5651;50.926;4.718;2022-09-23T00:22:35;101647.59;;;8.98;73.76
11190;BME280;5651;50.926;4.718;2022-09-23T00:25:03;101646.69;;;8.95;72.29
11190;BME280;5651;50.926;4.718;2022-09-23T00:27:29;101644.03;;;8.92;73.77
11190;BME280;5651;50.926;4.718;2022-09-23T00:29:55;101637.91;;;8.88;73.37
11190;BME280;5651;50.926;4.718;2022-09-23T00:32:21;101633.53;;;8.85;74.12
11190;BME280;5651;50.926;4.718;2022-09-23T00:34:47;101636.06;;;8.82;74.96
11190;BME280;5651;50.926;4.718;2022-09-23T00:37:13;101641.25;;;8.79;75.36
11190;BME280;5651;50.926;4.718;2022-09-23T00:39:39;101638.66;;;8.79;75.26
11190;BME280;5651;50.926;4.718;2022-09-23T00:42:18;101631.63;;;8.75;74.43
11190;BME280;5651;50.926;4.718;2022-09-23T00:44:52;101632.47;;;8.72;74.55
11190;BME280;5651;50.926;4.718;2022-09-23T00:47:35;101629.78;;;8.68;74.46
11190;BME280;5651;50.926;4.718;2022-09-23T00:52:53;101623.59;;;8.60;73.71
11190;BME280;5651;50.926;4.718;2022-09-23T00:55:51;101618.38;;;8.56;73.09
11190;BME280;5651;50.926;4.718;2022-09-23T00:58:22;101616.53;;;8.51;71.21
11190;BME280;5651;50.926;4.718;2022-09-23T01:00:52;101620.03;;;8.53;73.16
11190;BME280;5651;50.926;4.718;2022-09-23T01:03:18;101622.63;;;8.53;73.59
11190;BME280;5651;50.926;4.718;2022-09-23T01:05:44;101629.53;;;8.51;74.12
11190;BME280;5651;50.926;4.718;2022-09-23T01:08:12;101635.56;;;8.50;74.76
11190;BME280;5651;50.926;4.718;2022-09-23T01:10:55;101632.84;;;8.45;73.46
11190;BME280;5651;50.926;4.718;2022-09-23T01:13:42;101634.53;;;8.43;72.92
11190;BME280;5651;50.926;4.718;2022-09-23T01:19:45;101620.59;;;8.38;69.46
11190;BME280;5651;50.926;4.718;2022-09-23T01:22:22;101620.69;;;8.43;69.45
11190;BME280;5651;50.926;4.718;2022-09-23T01:30:40;101623.06;;;8.79;67.26
11190;BME280;5651;50.926;4.718;2022-09-23T01:36:15;101621.56;;;8.97;78.39
11190;BME280;5651;50.926;4.718;2022-09-23T01:41:34;101622.47;;;8.99;79.26
11190;BME280;5651;50.926;4.718;2022-09-23T01:44:17;101619.94;;;9.03;75.70
11190;BME280;5651;50.926;4.718;2022-09-23T01:46:57;101613.06;;;9.10;81.82
11190;BME280;5651;50.926;4.718;2022-09-23T01:49:33;101605.31;;;9.13;88.56
11190;BME280;5651;50.926;4.718;2022-09-23T01:52:19;101601.81;;;9.11;85.23
11190;BME280;5651;50.926;4.718;2022-09-23T01:54:53;101603.56;;;9.12;85.26
11190;BME280;5651;50.926;4.718;2022-09-23T01:57:35;101603.63;;;9.14;86.38
11190;BME280;5651;50.926;4.718;2022-09-23T02:00:21;101600.19;;;9.16;83.37
11190;BME280;5651;50.926;4.718;2022-09-23T02:02:52;101607.94;;;9.15;79.96
11190;BME280;5651;50.926;4.718;2022-09-23T02:05:29;101603.66;;;9.17;81.86
11190;BME280;5651;50.926;4.718;2022-09-23T02:10:44;101606.16;;;9.09;80.54
11190;BME280;5651;50.926;4.718;2022-09-23T02:16:00;101604.25;;;8.99;79.71
11190;BME280;5651;50.926;4.718;2022-09-23T02:18:34;101598.16;;;8.97;79.33
11190;BME280;5651;50.926;4.718;2022-09-23T02:21:05;101606.81;;;8.96;75.41
11190;BME280;5651;50.926;4.718;2022-09-23T02:23:49;101599.06;;;8.97;79.28
11190;BME280;5651;50.926;4.718;2022-09-23T02:26:27;101598.13;;;8.94;79.85
11190;BME280;5651;50.926;4.718;2022-09-23T02:29:08;101598.13;;;8.94;78.40
11190;BME280;5651;50.926;4.718;2022-09-23T02:31:46;101586.97;;;9.02;86.31
11190;BME280;5651;50.926;4.718;2022-09-23T02:37:27;101582.66;;;9.03;87.56
11190;BME280;5651;50.926;4.718;2022-09-23T02:40:23;101569.69;;;9.04;83.06
11190;BME280;5651;50.926;4.718;2022-09-23T02:43:15;101572.28;;;9.04;81.25
11190;BME280;5651;50.926;4.718;2022-09-23T02:45:45;101569.66;;;9.03;79.48
11190;BME280;5651;50.926;4.718;2022-09-23T02:48:14;101573.97;;;9.01;79.33
11190;BME280;5651;50.926;4.718;2022-09-23T02:50:43;101568.72;;;8.96;79.96
11190;BME280;5651;50.926;4.718;2022-09-23T02:53:10;101559.09;;;8.92;80.21
11190;BME280;5651;50.926;4.718;2022-09-23T02:55:36;101558.22;;;8.90;82.29
11190;BME280;5651;50.926;4.718;2022-09-23T02:58:02;101552.97;;;8.85;81.21
11190;BME280;5651;50.926;4.718;2022-09-23T03:06:07;101556.25;;;8.72;80.21
11190;BME280;5651;50.926;4.718;2022-09-23T03:08:52;101564.00;;;8.69;79.80
11190;BME280;5651;50.926;4.718;2022-09-23T03:11:21;101570.84;;;8.64;79.23
11190;BME280;5651;50.926;4.718;2022-09-23T03:14:24;101563.00;;;8.62;82.86
11190;BME280;5651;50.926;4.718;2022-09-23T03:17:12;101574.38;;;8.67;84.24
11190;BME280;5651;50.926;4.718;2022-09-23T03:20:02;101570.13;;;8.74;80.99
11190;BME280;5651;50.926;4.718;2022-09-23T03:22:34;101561.56;;;8.81;80.67
11190;BME280;5651;50.926;4.718;2022-09-23T03:25:12;101553.81;;;8.84;79.89
11190;BME280;5651;50.926;4.718;2022-09-23T03:27:41;101558.13;;;8.84;79.26
11190;BME280;5651;50.926;4.718;2022-09-23T03:30:11;101560.03;;;8.96;77.37
11190;BME280;5651;50.926;4.718;2022-09-23T03:32:39;101562.75;;;9.03;79.82
11190;BME280;5651;50.926;4.718;2022-09-23T03:35:07;101568.00;;;9.08;84.97
11190;BME280;5651;50.926;4.718;2022-09-23T03:37:55;101558.44;;;9.06;80.60
11190;BME280;5651;50.926;4.718;2022-09-23T03:40:29;101555.00;;;9.10;80.84
11190;BME280;5651;50.926;4.718;2022-09-23T03:42:57;101556.06;;;9.23;81.99
11190;BME280;5651;50.926;4.718;2022-09-23T03:45:29;101550.84;;;9.23;81.82
11190;BME280;5651;50.926;4.718;2022-09-23T03:47:56;101559.56;;;9.25;81.35
11190;BME280;5651;50.926;4.718;2022-09-23T03:50:22;101543.06;;;9.23;82.08
11190;BME280;5651;50.926;4.718;2022-09-23T03:52:48;101544.81;;;9.25;82.99
11190;BME280;5651;50.926;4.718;2022-09-23T03:55:16;101537.91;;;9.27;87.92
11190;BME280;5651;50.926;4.718;2022-09-23T03:57:42;101536.09;;;9.22;86.88
11190;BME280;5651;50.926;4.718;2022-09-23T04:00:10;101527.44;;;9.23;89.03
11190;BME280;5651;50.926;4.718;2022-09-23T04:02:37;101529.19;;;9.24;81.86
11190;BME280;5651;50.926;4.718;2022-09-23T04:05:03;101524.88;;;9.26;80.78
11190;BME280;5651;50.926;4.718;2022-09-23T04:07:29;101523.16;;;9.26;77.09
11190;BME280;5651;50.926;4.718;2022-09-23T04:09:54;101524.28;;;9.50;75.91
11190;BME280;5651;50.926;4.718;2022-09-23T04:12:20;101517.28;;;9.46;77.81
11190;BME280;5651;50.926;4.718;2022-09-23T04:14:46;101510.31;;;9.42;78.23
11190;BME280;5651;50.926;4.718;2022-09-23T04:17:13;101516.44;;;9.44;79.68
11190;BME280;5651;50.926;4.718;2022-09-23T04:19:39;101523.50;;;9.59;77.91
11190;BME280;5651;50.926;4.718;2022-09-23T04:22:06;101521.84;;;9.65;74.65
11190;BME280;5651;50.926;4.718;2022-09-23T04:24:32;101513.31;;;9.79;77.83
11190;BME280;5651;50.926;4.718;2022-09-23T04:26:57;101516.63;;;9.64;80.30
11190;BME280;5651;50.926;4.718;2022-09-23T04:29:24;101513.09;;;9.60;76.90
11190;BME280;5651;50.926;4.718;2022-09-23T04:31:51;101518.50;;;9.77;76.97
11190;BME280;5651;50.926;4.718;2022-09-23T04:34:17;101515.81;;;9.71;78.77
11190;BME280;5651;50.926;4.718;2022-09-23T04:36:45;101522.75;;;9.69;81.40
11190;BME280;5651;50.926;4.718;2022-09-23T04:39:13;101520.16;;;9.69;78.36
11190;BME280;5651;50.926;4.718;2022-09-23T04:41:40;101514.97;;;9.71;80.40
11190;BME280;5651;50.926;4.718;2022-09-23T04:44:06;101507.16;;;9.71;80.70
11190;BME280;5651;50.926;4.718;2022-09-23T04:46:32;101501.94;;;9.69;81.89
11190;BME280;5651;50.926;4.718;2022-09-23T04:48:58;101513.19;;;9.66;81.32
11190;BME280;5651;50.926;4.718;2022-09-23T04:51:26;101514.91;;;9.66;82.62
11190;BME280;5651;50.926;4.718;2022-09-23T04:53:53;101519.31;;;9.72;78.73
11190;BME280;5651;50.926;4.718;2022-09-23T04:56:23;101515.00;;;9.75;85.84
11190;BME280;5651;50.926;4.718;2022-09-23T04:58:51;101502.78;;;9.70;79.54
11190;BME280;5651;50.926;4.718;2022-09-23T05:01:20;101507.09;;;9.67;79.98
11190;BME280;5651;50.926;4.718;2022-09-23T05:03:50;101509.00;;;9.82;78.79
11190;BME280;5651;50.926;4.718;2022-09-23T05:06:16;101514.25;;;9.89;77.59
11190;BME280;5651;50.926;4.718;2022-09-23T05:08:47;101505.50;;;9.80;81.03
11190;BME280;5651;50.926;4.718;2022-09-23T05:11:14;101505.50;;;9.77;78.96
11190;BME280;5651;50.926;4.718;2022-09-23T05:13:40;101510.66;;;9.73;78.83
11190;BME280;5651;50.926;4.718;2022-09-23T05:16:09;101510.00;;;9.97;77.71
11190;BME280;5651;50.926;4.718;2022-09-23T05:18:38;101514.44;;;10.10;78.23
11190;BME280;5651;50.926;4.718;2022-09-23T05:21:10;101512.59;;;9.97;80.39
11190;BME280;5651;50.926;4.718;2022-09-23T05:23:36;101513.34;;;9.83;79.18
11190;BME280;5651;50.926;4.718;2022-09-23T05:26:08;101517.63;;;9.77;80.83
11190;BME280;5651;50.926;4.718;2022-09-23T05:28:34;101516.72;;;9.75;82.90
11190;BME280;5651;50.926;4.718;2022-09-23T05:31:07;101512.34;;;9.69;85.61
11190;BME280;5651;50.926;4.718;2022-09-23T05:33:35;101525.31;;;9.64;84.11
11190;BME280;5651;50.926;4.718;2022-09-23T05:36:02;101525.31;;;9.66;86.36
11190;BME280;5651;50.926;4.718;2022-09-23T05:38:28;101525.25;;;9.60;88.10
11190;BME280;5651;50.926;4.718;2022-09-23T05:40:56;101528.75;;;9.63;86.50
11190;BME280;5651;50.926;4.718;2022-09-23T05:43:22;101527.91;;;9.66;84.20
11190;BME280;5651;50.926;4.718;2022-09-23T05:45:48;101524.41;;;9.64;85.58
11190;BME280;5651;50.926;4.718;2022-09-23T05:48:13;101529.56;;;9.55;85.14
11190;BME280;5651;50.926;4.718;2022-09-23T05:50:48;101520.84;;;9.52;88.12
11190;BME280;5651;50.926;4.718;2022-09-23T05:53:14;101526.91;;;9.53;84.48
11190;BME280;5651;50.926;4.718;2022-09-23T05:55:39;101522.59;;;9.54;81.31
11190;BME280;5651;50.926;4.718;2022-09-23T05:58:05;101533.91;;;9.57;84.98
11190;BME280;5651;50.926;4.718;2022-09-23T06:00:31;101530.41;;;9.55;85.11
11190;BME280;5651;50.926;4.718;2022-09-23T06:02:56;101536.50;;;9.59;88.13
11190;BME280;5651;50.926;4.718;2022-09-23T06:05:22;101530.47;;;9.58;87.01
11190;BME280;5651;50.926;4.718;2022-09-23T06:07:48;101530.38;;;9.52;90.40
11190;BME280;5651;50.926;4.718;2022-09-23T06:10:14;101535.63;;;9.57;84.02
11190;BME280;5651;50.926;4.718;2022-09-23T06:12:39;101530.50;;;9.63;88.81
11190;BME280;5651;50.926;4.718;2022-09-23T06:15:07;101521.69;;;9.53;88.69
11190;BME280;5651;50.926;4.718;2022-09-23T06:17:33;101513.09;;;9.60;90.62
11190;BME280;5651;50.926;4.718;2022-09-23T06:19:59;101525.31;;;9.63;86.61
11190;BME280;5651;50.926;4.718;2022-09-23T06:22:25;101511.41;;;9.64;86.15
11190;BME280;5651;50.926;4.718;2022-09-23T06:24:50;101515.91;;;9.77;85.37
11190;BME280;5651;50.926;4.718;2022-09-23T06:27:16;101511.53;;;9.76;87.68
11190;BME280;5651;50.926;4.718;2022-09-23T06:29:42;101509.94;;;9.89;84.28
11190;BME280;5651;50.926;4.718;2022-09-23T06:32:08;101510.78;;;9.90;88.99
11190;BME280;5651;50.926;4.718;2022-09-23T06:34:34;101517.75;;;9.94;87.14
11190;BME280;5651;50.926;4.718;2022-09-23T06:36:59;101513.50;;;9.99;91.61
11190;BME280;5651;50.926;4.718;2022-09-23T06:39:25;101515.25;;;10.02;88.18
11190;BME280;5651;50.926;4.718;2022-09-23T06:41:51;101512.72;;;10.12;90.88
11190;BME280;5651;50.926;4.718;2022-09-23T06:44:17;101511.88;;;10.17;91.51
11190;BME280;5651;50.926;4.718;2022-09-23T06:46:42;101519.75;;;10.24;88.46
11190;BME280;5651;50.926;4.718;2022-09-23T06:49:08;101519.03;;;10.38;87.21
11190;BME280;5651;50.926;4.718;2022-09-23T06:51:35;101515.59;;;10.43;87.05
11190;BME280;5651;50.926;4.718;2022-09-23T06:54:01;101515.66;;;10.53;88.70
11190;BME280;5651;50.926;4.718;2022-09-23T06:56:26;101513.09;;;10.60;87.61
11190;BME280;5651;50.926;4.718;2022-09-23T06:58:52;101513.97;;;10.62;88.07
11190;BME280;5651;50.926;4.718;2022-09-23T07:01:19;101508.75;;;10.64;90.09
11190;BME280;5651;50.926;4.718;2022-09-23T07:03:45;101506.19;;;10.69;90.08
11190;BME280;5651;50.926;4.718;2022-09-23T07:06:15;101506.22;;;10.73;90.17
11190;BME280;5651;50.926;4.718;2022-09-23T07:08:45;101508.91;;;10.92;85.29
11190;BME280;5651;50.926;4.718;2022-09-23T07:11:12;101506.34;;;11.07;85.66
11190;BME280;5651;50.926;4.718;2022-09-23T07:13:39;101501.16;;;11.12;84.55
11190;BME280;5651;50.926;4.718;2022-09-23T07:16:05;101497.75;;;11.21;84.57
11190;BME280;5651;50.926;4.718;2022-09-23T07:18:32;101502.13;;;11.33;82.03
11190;BME280;5651;50.926;4.718;2022-09-23T07:21:07;101513.44;;;11.43;82.41
11190;BME280;5651;50.926;4.718;2022-09-23T07:23:33;101517.78;;;11.48;82.10
11190;BME280;5651;50.926;4.718;2022-09-23T07:25:59;101514.31;;;11.49;84.63
11190;BME280;5651;50.926;4.718;2022-09-23T07:28:25;101513.47;;;11.55;83.78
11190;BME280;5651;50.926;4.718;2022-09-23T07:30:53;101515.25;;;11.71;82.06
11190;BME280;5651;50.926;4.718;2022-09-23T07:33:20;101517.84;;;11.79;81.61
11190;BME280;5651;50.926;4.718;2022-09-23T07:35:46;101515.25;;;11.87;80.50
11190;BME280;5651;50.926;4.718;2022-09-23T07:38:12;101522.22;;;11.91;81.72
11190;BME280;5651;50.926;4.718;2022-09-23T07:40:38;101514.44;;;12.00;80.34
11190;BME280;5651;50.926;4.718;2022-09-23T07:43:07;101519.66;;;12.07;80.06
11190;BME280;5651;50.926;4.718;2022-09-23T07:45:34;101518.81;;;12.04;81.91
11190;BME280;5651;50.926;4.718;2022-09-23T07:48:03;101524.00;;;12.14;82.19
11190;BME280;5651;50.926;4.718;2022-09-23T07:50:29;101517.91;;;12.18;81.52
11190;BME280;5651;50.926;4.718;2022-09-23T07:52:57;101515.28;;;12.30;80.76
11190;BME280;5651;50.926;4.718;2022-09-23T07:55:23;101513.53;;;12.39;80.10
11190;BME280;5651;50.926;4.718;2022-09-23T07:57:49;101511.78;;;12.50;80.09
11190;BME280;5651;50.926;4.718;2022-09-23T08:00:15;101512.63;;;12.57;78.61
11190;BME280;5651;50.926;4.718;2022-09-23T08:02:40;101511.72;;;12.65;79.96
11190;BME280;5651;50.926;4.718;2022-09-23T08:05:07;101507.41;;;12.64;80.36
11190;BME280;5651;50.926;4.718;2022-09-23T08:07:33;101514.34;;;12.76;78.82
11190;BME280;5651;50.926;4.718;2022-09-23T08:10:00;101511.69;;;12.87;78.61
11190;BME280;5651;50.926;4.718;2022-09-23T08:12:27;101508.16;;;13.00;77.40
11190;BME280;5651;50.926;4.718;2022-09-23T08:14:54;101515.91;;;13.21;76.12
11190;BME280;5651;50.926;4.718;2022-09-23T08:17:20;101514.19;;;13.20;77.74
11190;BME280;5651;50.926;4.718;2022-09-23T08:19:46;101519.34;;;13.27;76.92
11190;BME280;5651;50.926;4.718;2022-09-23T08:22:11;101518.47;;;13.31;76.74
11190;BME280;5651;50.926;4.718;2022-09-23T08:24:37;101514.94;;;13.45;76.81
11190;BME280;5651;50.926;4.718;2022-09-23T08:27:03;101514.03;;;13.51;76.72
11190;BME280;5651;50.926;4.718;2022-09-23T08:29:29;101514.81;;;13.63;77.52
11190;BME280;5651;50.926;4.718;2022-09-23T08:31:54;101512.13;;;13.73;76.99
11190;BME280;5651;50.926;4.718;2022-09-23T08:34:21;101512.84;;;14.00;73.79
11190;BME280;5651;50.926;4.718;2022-09-23T08:36:47;101511.97;;;13.98;76.28
11190;BME280;5651;50.926;4.718;2022-09-23T08:39:15;101504.84;;;14.12;75.26
11190;BME280;5651;50.926;4.718;2022-09-23T08:44:23;101505.41;;;14.47;72.12
11190;BME280;5651;50.926;4.718;2022-09-23T08:46:53;101513.09;;;14.64;70.23
11190;BME280;5651;50.926;4.718;2022-09-23T08:49:39;101505.19;;;14.70;70.93
11190;BME280;5651;50.926;4.718;2022-09-23T08:52:13;101512.16;;;14.71;71.71
11190;BME280;5651;50.926;4.718;2022-09-23T08:54:42;101518.94;;;14.92;70.46
11190;BME280;5651;50.926;4.718;2022-09-23T08:57:16;101526.06;;;14.82;70.68
11190;BME280;5651;50.926;4.718;2022-09-23T08:59:47;101522.56;;;14.80;71.31
11190;BME280;5651;50.926;4.718;2022-09-23T09:02:21;101518.63;;;15.15;70.40
11190;BME280;5651;50.926;4.718;2022-09-23T09:04:48;101517.81;;;15.12;71.90
11190;BME280;5651;50.926;4.718;2022-09-23T09:07:19;101517.72;;;15.19;72.65
11190;BME280;5651;50.926;4.718;2022-09-23T09:20:49;101504.78;;;15.69;69.42
11190;BME280;5651;50.926;4.718;2022-09-23T09:25:49;101497.31;;;15.98;70.53
11190;BME280;5651;50.926;4.718;2022-09-23T09:28:17;101502.34;;;16.12;68.26
11190;BME280;5651;50.926;4.718;2022-09-23T09:30:46;101495.09;;;16.26;68.92
11190;BME280;5651;50.926;4.718;2022-09-23T09:33:15;101492.25;;;16.39;69.06
11190;BME280;5651;50.926;4.718;2022-09-23T09:38:35;101486.59;;;16.60;68.91
11190;BME280;5651;50.926;4.718;2022-09-23T09:41:13;101486.38;;;16.70;69.20
11190;BME280;5651;50.926;4.718;2022-09-23T09:43:40;101473.84;;;16.84;70.22
11190;BME280;5651;50.926;4.718;2022-09-23T09:48:55;101474.25;;;17.06;67.42
11190;BME280;5651;50.926;4.718;2022-09-23T09:51:26;101475.28;;;16.99;68.73
11190;BME280;5651;50.926;4.718;2022-09-23T09:53:53;101477.97;;;16.96;67.73
11190;BME280;5651;50.926;4.718;2022-09-23T09:56:24;101475.75;;;17.18;69.59
11190;BME280;5651;50.926;4.718;2022-09-23T09:59:23;101472.59;;;17.43;68.41
11190;BME280;5651;50.926;4.718;2022-09-23T10:02:18;101480.47;;;17.43;67.75
11190;BME280;5651;50.926;4.718;2022-09-23T10:04:54;101485.13;;;17.69;67.54
11190;BME280;5651;50.926;4.718;2022-09-23T10:07:25;101482.09;;;17.86;68.07
11190;BME280;5651;50.926;4.718;2022-09-23T10:09:51;101480.09;;;17.96;68.92
11190;BME280;5651;50.926;4.718;2022-09-23T10:12:19;101478.84;;;18.11;68.59
11190;BME280;5651;50.926;4.718;2022-09-23T10:14:48;101481.34;;;18.17;68.19
11190;BME280;5651;50.926;4.718;2022-09-23T10:17:30;101479.06;;;18.36;64.62
11190;BME280;5651;50.926;4.718;2022-09-23T10:20:07;101478.97;;;18.40;65.54
11190;BME280;5651;50.926;4.718;2022-09-23T10:22:38;101473.44;;;18.49;66.95
11190;BME280;5651;50.926;4.718;2022-09-23T10:25:11;101468.88;;;18.56;66.73
11190;BME280;5651;50.926;4.718;2022-09-23T10:27:40;101466.91;;;18.62;67.40
11190;BME280;5651;50.926;4.718;2022-09-23T10:30:21;101469.16;;;18.76;66.02
11190;BME280;5651;50.926;4.718;2022-09-23T10:32:48;101459.72;;;18.99;65.38
11190;BME280;5651;50.926;4.718;2022-09-23T10:35:16;101461.19;;;18.78;63.20
11190;BME280;5651;50.926;4.718;2022-09-23T10:37:55;101465.16;;;18.94;64.03
11190;BME280;5651;50.926;4.718;2022-09-23T10:40:40;101466.03;;;19.23;65.19
11190;BME280;5651;50.926;4.718;2022-09-23T11:08:05;101450.47;;;20.72;61.54
11190;BME280;5651;50.926;4.718;2022-09-23T11:21:25;101450.09;;;21.05;61.92
11190;BME280;5651;50.926;4.718;2022-09-23T11:24:19;101448.94;;;21.12;60.61
11190;BME280;5651;50.926;4.718;2022-09-23T11:30:10;101445.94;;;21.21;61.69
11190;BME280;5651;50.926;4.718;2022-09-23T11:33:13;101446.09;;;21.17;57.87
11190;BME280;5651;50.926;4.718;2022-09-23T11:35:49;101443.41;;;21.18;58.87
11190;BME280;5651;50.926;4.718;2022-09-23T11:38:26;101444.69;;;21.08;59.09
11190;BME280;5651;50.926;4.718;2022-09-23T11:40:58;101438.66;;;21.04;57.66
11190;BME280;5651;50.926;4.718;2022-09-23T11:43:34;101428.53;;;21.14;58.99
11190;BME280;5651;50.926;4.718;2022-09-23T11:48:45;101429.88;;;21.02;59.23
11190;BME280;5651;50.926;4.718;2022-09-23T11:51:20;101423.91;;;21.19;58.31
11190;BME280;5651;50.926;4.718;2022-09-23T11:54:20;101427.25;;;21.02;59.13
11190;BME280;5651;50.926;4.718;2022-09-23T11:56:52;101424.41;;;21.07;59.99
11190;BME280;5651;50.926;4.718;2022-09-23T11:59:28;101420.91;;;21.07;60.18
11190;BME280;5651;50.926;4.718;2022-09-23T12:02:03;101418.75;;;21.16;58.99
11190;BME280;5651;50.926;4.718;2022-09-23T12:04:34;101420.09;;;21.04;58.17
11190;BME280;5651;50.926;4.718;2022-09-23T12:07:10;101415.13;;;21.19;58.36
11190;BME280;5651;50.926;4.718;2022-09-23T12:09:58;101414.84;;;21.25;59.87
11190;BME280;5651;50.926;4.718;2022-09-23T12:12:53;101424.97;;;21.60;58.70
11190;BME280;5651;50.926;4.718;2022-09-23T12:15:33;101415.72;;;21.48;58.66
11190;BME280;5651;50.926;4.718;2022-09-23T12:21:04;101404.69;;;21.59;57.86
11190;BME280;5651;50.926;4.718;2022-09-23T12:26:18;101411.66;;;21.61;59.87
11190;BME280;5651;50.926;4.718;2022-09-23T12:28:49;101412.56;;;21.60;59.89
11190;BME280;5651;50.926;4.718;2022-09-23T12:31:18;101404.28;;;21.46;59.27
11190;BME280;5651;50.926;4.718;2022-09-23T12:33:52;101410.22;;;21.75;60.07
11190;BME280;5651;50.926;4.718;2022-09-23T12:36:32;101405.22;;;21.67;59.18
11190;BME280;5651;50.926;4.718;2022-09-23T12:39:15;101401.44;;;21.93;58.73
11190;BME280;5651;50.926;4.718;2022-09-23T12:41:45;101392.16;;;21.62;56.74
11190;BME280;5651;50.926;4.718;2022-09-23T12:44:29;101393.69;;;21.68;57.76
11190;BME280;5651;50.926;4.718;2022-09-23T12:49:50;101391.50;;;21.57;57.59
11190;BME280;5651;50.926;4.718;2022-09-23T12:54:48;101395.00;;;21.58;58.36
11190;BME280;5651;50.926;4.718;2022-09-23T13:02:40;101392.72;;;21.04;59.17
11190;BME280;5651;50.926;4.718;2022-09-23T13:07:56;101384.88;;;21.23;58.64
11190;BME280;5651;50.926;4.718;2022-09-23T13:10:45;101388.59;;;20.97;58.89
11190;BME280;5651;50.926;4.718;2022-09-23T13:15:52;101375.66;;;20.89;59.86
11190;BME280;5651;50.926;4.718;2022-09-23T13:20:46;101373.31;;;21.03;60.40
11190;BME280;5651;50.926;4.718;2022-09-23T13:23:28;101368.66;;;21.10;60.57
11190;BME280;5651;50.926;4.718;2022-09-23T13:25:58;101371.97;;;21.15;62.15
11190;BME280;5651;50.926;4.718;2022-09-23T13:28:38;101372.88;;;21.14;61.27
11190;BME280;5651;50.926;4.718;2022-09-23T13:31:12;101362.63;;;21.07;59.41
11190;BME280;5651;50.926;4.718;2022-09-23T13:33:46;101364.81;;;21.17;60.03
11190;BME280;5651;50.926;4.718;2022-09-23T13:36:15;101362.00;;;21.43;59.78
11190;BME280;5651;50.926;4.718;2022-09-23T13:38:42;101362.66;;;21.48;58.78
11190;BME280;5651;50.926;4.718;2022-09-23T13:44:12;101359.63;;;21.36;59.56
11190;BME280;5651;50.926;4.718;2022-09-23T13:46:41;101352.25;;;21.43;58.51
11190;BME280;5651;50.926;4.718;2022-09-23T13:49:27;101342.22;;;20.86;59.58
11190;BME280;5651;50.926;4.718;2022-09-23T13:51:55;101349.34;;;21.07;59.72
11190;BME280;5651;50.926;4.718;2022-09-23T13:54:33;101344.22;;;21.24;59.66
11190;BME280;5651;50.926;4.718;2022-09-23T13:57:02;101347.53;;;20.85;61.06
11190;BME280;5651;50.926;4.718;2022-09-23T13:59:35;101344.00;;;21.08;61.11
11190;BME280;5651;50.926;4.718;2022-09-23T14:02:05;101346.63;;;21.08;61.79
11190;BME280;5651;50.926;4.718;2022-09-23T14:04:31;101338.63;;;21.10;61.58
11190;BME280;5651;50.926;4.718;2022-09-23T14:06:57;101337.50;;;21.15;60.96
11190;BME280;5651;50.926;4.718;2022-09-23T14:09:24;101340.91;;;21.19;61.02
11190;BME280;5651;50.926;4.718;2022-09-23T14:11:54;101340.81;;;21.20;61.67
11190;BME280;5651;50.926;4.718;2022-09-23T14:14:21;101338.53;;;21.33;61.52
11190;BME280;5651;50.926;4.718;2022-09-23T14:16:48;101333.69;;;21.23;60.32
11190;BME280;5651;50.926;4.718;2022-09-23T14:19:16;101331.69;;;21.28;60.67
11190;BME280;5651;50.926;4.718;2022-09-23T14:21:47;101340.09;;;21.37;60.60
11190;BME280;5651;50.926;4.718;2022-09-23T14:26:41;101328.78;;;21.34;60.65
11190;BME280;5651;50.926;4.718;2022-09-23T14:29:33;101326.53;;;21.25;61.20
11190;BME280;5651;50.926;4.718;2022-09-23T14:32:04;101326.56;;;21.23;61.68
11190;BME280;5651;50.926;4.718;2022-09-23T14:37:32;101321.59;;;21.15;61.63
11190;BME280;5651;50.926;4.718;2022-09-23T14:40:28;101329.84;;;21.08;62.05
11190;BME280;5651;50.926;4.718;2022-09-23T14:45:24;101319.53;;;20.79;61.43
11190;BME280;5651;50.926;4.718;2022-09-23T14:47:56;101316.09;;;20.77;61.64
11190;BME280;5651;50.926;4.718;2022-09-23T14:50:26;101314.50;;;20.71;61.11
11190;BME280;5651;50.926;4.718;2022-09-23T14:55:45;101307.34;;;20.51;62.56
11190;BME280;5651;50.926;4.718;2022-09-23T14:58:14;101312.53;;;20.54;62.20
11190;BME280;5651;50.926;4.718;2022-09-23T15:00:55;101312.13;;;20.41;63.63
11190;BME280;5651;50.926;4.718;2022-09-23T15:03:21;101306.97;;;20.38;63.43
11190;BME280;5651;50.926;4.718;2022-09-23T15:05:49;101309.56;;;20.40;63.20
11190;BME280;5651;50.926;4.718;2022-09-23T15:08:21;101299.94;;;20.37;64.48
11190;BME280;5651;50.926;4.718;2022-09-23T15:10:48;101298.63;;;20.25;65.29
11190;BME280;5651;50.926;4.718;2022-09-23T15:13:22;101288.88;;;20.26;65.47
11190;BME280;5651;50.926;4.718;2022-09-23T15:15:52;101301.38;;;20.22;65.07
11190;BME280;5651;50.926;4.718;2022-09-23T15:18:37;101293.91;;;20.10;66.26
11190;BME280;5651;50.926;4.718;2022-09-23T15:21:15;101298.41;;;20.08;65.94
11190;BME280;5651;50.926;4.718;2022-09-23T15:26:14;101291.59;;;20.01;66.58
11190;BME280;5651;50.926;4.718;2022-09-23T15:28:41;101287.56;;;19.90;67.32
11190;BME280;5651;50.926;4.718;2022-09-23T15:31:18;101286.91;;;19.84;66.97
11190;BME280;5651;50.926;4.718;2022-09-23T15:33:45;101283.56;;;19.78;67.36
11190;BME280;5651;50.926;4.718;2022-09-23T15:36:17;101283.91;;;19.69;68.47
11190;BME280;5651;50.926;4.718;2022-09-23T15:38:44;101292.91;;;19.63;68.31
11190;BME280;5651;50.926;4.718;2022-09-23T15:41:11;101285.91;;;19.62;65.89